createdAt,value
2018-02-20T00:01:22.953Z,18.87
2018-02-20T00:03:51.351Z,18.07
2018-02-20T00:06:19.800Z,18.37
2018-02-20T00:08:48.204Z,19.20
2018-02-20T00:11:16.653Z,18.93
2018-02-20T00:13:45.077Z,20.00
2018-02-20T00:16:13.495Z,20.13
2018-02-20T00:18:41.922Z,18.40
2018-02-20T00:21:10.343Z,18.87
2018-02-20T00:23:38.811Z,19.53
2018-02-20T00:26:07.292Z,19.07
2018-02-20T00:28:35.731Z,19.23
2018-02-20T00:31:04.172Z,19.20
2018-02-20T00:33:32.613Z,19.27
2018-02-20T00:36:01.017Z,19.50
2018-02-20T00:38:29.476Z,18.50
2018-02-20T00:40:57.881Z,20.70
2018-02-20T00:43:26.320Z,19.53
2018-02-20T00:45:54.716Z,20.13
2018-02-20T00:48:23.168Z,18.87
2018-02-20T00:50:51.605Z,20.40
2018-02-20T00:53:20.061Z,19.63
2018-02-20T00:55:48.457Z,21.07
2018-02-20T00:58:16.901Z,20.93
2018-02-20T01:00:45.296Z,20.40
2018-02-20T01:03:13.796Z,20.40
2018-02-20T01:05:42.238Z,19.53
2018-02-20T01:08:10.682Z,20.60
2018-02-20T01:10:39.098Z,19.87
2018-02-20T01:13:07.536Z,19.80
2018-02-20T01:15:36.010Z,20.73
2018-02-20T01:18:04.481Z,20.37
2018-02-20T01:20:32.886Z,20.07
2018-02-20T01:23:01.337Z,20.23
2018-02-20T01:25:29.732Z,20.37
2018-02-20T01:27:58.172Z,19.47
2018-02-20T01:30:26.600Z,20.97
2018-02-20T01:32:54.997Z,20.57
2018-02-20T01:35:23.440Z,20.73
2018-02-20T01:37:51.849Z,20.77
2018-02-20T01:40:20.302Z,20.23
2018-02-20T01:42:48.700Z,20.20
2018-02-20T01:45:17.138Z,20.70
2018-02-20T01:47:45.552Z,20.03
2018-02-20T01:50:13.988Z,21.53
2018-02-20T01:52:42.455Z,20.93
2018-02-20T01:55:10.892Z,20.30
2018-02-20T01:57:39.403Z,20.93
2018-02-20T02:00:07.879Z,21.10
2018-02-20T02:02:36.422Z,21.47
2018-02-20T02:05:04.912Z,20.20
2018-02-20T02:07:33.402Z,22.00
2018-02-20T02:10:01.940Z,20.83
2018-02-20T02:12:30.450Z,21.17
2018-02-20T02:14:58.967Z,21.00
2018-02-20T02:17:27.467Z,23.17
2018-02-20T02:19:55.973Z,21.67
2018-02-20T02:22:24.477Z,22.23
2018-02-20T02:24:52.942Z,22.27
2018-02-20T02:27:21.462Z,22.10
2018-02-20T02:29:49.966Z,22.87
2018-02-20T02:32:18.522Z,22.03
2018-02-20T02:34:46.983Z,22.13
2018-02-20T02:37:15.522Z,21.57
2018-02-20T02:39:44.000Z,21.23
2018-02-20T02:42:12.489Z,22.97
2018-02-20T02:44:40.966Z,22.23
2018-02-20T02:47:09.479Z,21.57
2018-02-20T02:49:37.995Z,22.87
2018-02-20T02:52:06.463Z,21.17
2018-02-20T02:54:35.042Z,22.80
2018-02-20T02:57:03.503Z,21.70
2018-02-20T02:59:31.971Z,23.13
2018-02-20T03:02:00.474Z,23.30
2018-02-20T03:04:29.006Z,21.50
2018-02-20T03:06:57.516Z,22.77
2018-02-20T03:09:26.006Z,22.90
2018-02-20T03:11:54.473Z,23.17
2018-02-20T03:14:22.978Z,24.07
2018-02-20T03:16:51.488Z,22.93
2018-02-20T03:19:19.997Z,22.87
2018-02-20T03:21:48.468Z,24.03
2018-02-20T03:24:17.008Z,23.70
2018-02-20T03:26:45.494Z,22.57
2018-02-20T03:29:13.954Z,22.87
2018-02-20T03:31:42.461Z,24.03
2018-02-20T03:34:10.942Z,23.70
2018-02-20T03:36:39.478Z,25.00
2018-02-20T03:39:07.946Z,24.50
2018-02-20T03:41:36.440Z,25.30
2018-02-20T03:44:04.941Z,25.10
2018-02-20T03:46:33.488Z,25.10
2018-02-20T03:49:01.982Z,25.17
2018-02-20T03:51:30.596Z,24.17
2018-02-20T03:53:59.063Z,24.13
2018-02-20T03:56:27.534Z,25.53
2018-02-20T03:58:56.046Z,24.30
2018-02-20T04:01:24.547Z,24.33
2018-02-20T04:03:53.024Z,26.07
2018-02-20T04:06:21.546Z,25.40
2018-02-20T04:08:50.010Z,25.23
2018-02-20T04:11:18.506Z,24.13
2018-02-20T04:13:47.006Z,26.27
2018-02-20T04:16:15.530Z,25.87
2018-02-20T04:18:44.018Z,26.77
2018-02-20T04:21:12.521Z,25.80
2018-02-20T04:23:41.045Z,25.47
2018-02-20T04:26:09.503Z,26.40
2018-02-20T04:28:37.955Z,24.77
2018-02-20T04:31:06.472Z,24.77
2018-02-20T04:33:34.998Z,24.50
2018-02-20T04:36:03.510Z,24.20
2018-02-20T04:38:31.970Z,26.27
2018-02-20T04:41:00.451Z,26.17
2018-02-20T04:43:28.950Z,24.70
2018-02-20T04:45:57.409Z,24.57
2018-02-20T04:48:25.907Z,25.57
2018-02-20T04:50:54.378Z,25.67
2018-02-20T04:53:22.877Z,26.13
2018-02-20T04:55:51.336Z,27.40
2018-02-20T04:58:19.838Z,66.20
2018-02-20T05:00:48.329Z,73.57
2018-02-20T05:03:16.826Z,44.20
2018-02-20T05:05:45.285Z,39.27
2018-02-20T05:08:13.745Z,32.00
2018-02-20T05:10:42.237Z,34.13
2018-02-20T05:13:10.734Z,75.03
2018-02-20T05:15:39.237Z,38.23
2018-02-20T05:18:07.706Z,32.93
2018-02-20T05:20:36.209Z,26.97
2018-02-20T05:23:04.706Z,25.17
2018-02-20T05:25:33.207Z,26.80
2018-02-20T05:28:01.687Z,39.53
2018-02-20T05:30:30.195Z,27.93
2018-02-20T05:32:59.391Z,24.87
2018-02-20T05:35:27.845Z,25.23
2018-02-20T05:37:56.357Z,24.53
2018-02-20T05:40:24.818Z,25.43
2018-02-20T05:42:53.338Z,26.07
2018-02-20T05:45:21.813Z,26.13
2018-02-20T05:47:50.297Z,32.60
2018-02-20T05:50:18.799Z,32.90
2018-02-20T05:52:47.279Z,26.53
2018-02-20T05:55:15.775Z,26.57
2018-02-20T05:57:44.269Z,27.00
2018-02-20T06:00:12.802Z,26.07
2018-02-20T06:02:41.270Z,25.33
2018-02-20T06:05:09.730Z,27.57
2018-02-20T06:07:38.233Z,27.53
2018-02-20T06:10:06.744Z,27.07
2018-02-20T06:12:35.214Z,27.43
2018-02-20T06:15:03.716Z,26.20
2018-02-20T06:17:32.222Z,27.43
2018-02-20T06:20:00.754Z,27.77
2018-02-20T06:22:29.222Z,25.50
2018-02-20T06:24:57.687Z,30.03
2018-02-20T06:27:26.190Z,28.50
2018-02-20T06:29:54.655Z,35.73
2018-02-20T06:32:23.139Z,33.87
2018-02-20T06:34:51.676Z,27.70
2018-02-20T06:37:20.145Z,26.13
2018-02-20T06:39:48.690Z,27.40
2018-02-20T06:42:17.202Z,26.90
2018-02-20T06:44:45.774Z,27.90
2018-02-20T06:47:14.243Z,26.27
2018-02-20T06:49:42.776Z,24.90
2018-02-20T06:52:11.255Z,24.17
2018-02-20T06:54:39.762Z,24.87
2018-02-20T06:57:08.240Z,25.17
2018-02-20T06:59:36.746Z,24.27
2018-02-20T07:02:05.268Z,26.57
2018-02-20T07:04:33.920Z,28.43
2018-02-20T07:07:02.379Z,27.17
2018-02-20T07:09:30.850Z,26.27
2018-02-20T07:11:59.373Z,23.40
2018-02-20T07:14:27.846Z,24.23
2018-02-20T07:16:56.365Z,25.23
2018-02-20T07:19:24.844Z,25.57
2018-02-20T07:21:53.319Z,26.53
2018-02-20T07:24:21.803Z,30.90
2018-02-20T07:26:50.269Z,27.87
2018-02-20T07:29:18.798Z,24.90
2018-02-20T07:31:47.278Z,25.60
2018-02-20T07:34:15.754Z,24.07
2018-02-20T07:36:44.280Z,23.40
2018-02-20T07:39:12.790Z,24.10
2018-02-20T07:41:41.261Z,25.37
2018-02-20T07:44:09.755Z,28.17
2018-02-20T07:46:38.230Z,24.17
2018-02-20T07:49:06.699Z,24.60
2018-02-20T07:51:35.210Z,25.23
2018-02-20T07:54:03.723Z,25.23
2018-02-20T07:56:32.229Z,25.97
2018-02-20T07:59:00.713Z,27.30
2018-02-20T08:01:29.245Z,28.10
2018-02-20T08:03:57.794Z,29.70
2018-02-20T08:06:26.243Z,27.10
2018-02-20T08:08:54.744Z,28.67
2018-02-20T08:11:23.214Z,27.87
2018-02-20T08:13:51.726Z,25.23
2018-02-20T08:16:20.210Z,25.07
2018-02-20T08:18:48.718Z,23.73
2018-02-20T08:21:17.222Z,23.53
2018-02-20T08:23:45.747Z,25.00
2018-02-20T08:26:14.250Z,21.80
2018-02-20T08:28:42.807Z,25.57
2018-02-20T08:31:11.270Z,20.03
2018-02-20T08:33:39.746Z,22.90
2018-02-20T08:36:08.261Z,24.63
2018-02-20T08:38:36.722Z,25.40
2018-02-20T08:41:05.231Z,23.00
2018-02-20T08:43:33.754Z,23.63
2018-02-20T08:46:02.249Z,24.83
2018-02-20T08:48:30.827Z,24.40
2018-02-20T08:50:59.319Z,23.93
2018-02-20T08:53:27.788Z,25.17
2018-02-20T08:55:56.457Z,22.43
2018-02-20T08:58:24.932Z,34.47
2018-02-20T09:00:53.394Z,25.40
2018-02-20T09:03:21.906Z,22.07
2018-02-20T09:05:50.369Z,23.00
2018-02-20T09:08:18.886Z,24.97
2018-02-20T09:10:47.335Z,26.83
2018-02-20T09:13:15.834Z,26.30
2018-02-20T09:15:44.318Z,25.03
2018-02-20T09:18:12.808Z,23.50
2018-02-20T09:20:41.274Z,38.90
2018-02-20T09:23:09.815Z,27.00
2018-02-20T09:25:38.288Z,24.57
2018-02-20T09:28:06.790Z,22.47
2018-02-20T09:30:35.336Z,23.90
2018-02-20T09:33:03.806Z,20.73
2018-02-20T09:35:32.421Z,20.13
2018-02-20T09:38:00.925Z,21.67
2018-02-20T09:40:29.427Z,21.03
2018-02-20T09:42:57.930Z,21.37
2018-02-20T09:45:26.438Z,19.80
2018-02-20T09:47:54.934Z,20.27
2018-02-20T09:50:23.402Z,22.27
2018-02-20T09:52:51.909Z,17.40
2018-02-20T09:55:20.385Z,25.47
2018-02-20T09:57:48.894Z,19.80
2018-02-20T10:00:17.364Z,18.17
2018-02-20T10:02:45.875Z,17.17
2018-02-20T10:05:14.409Z,19.53
2018-02-20T10:07:42.886Z,18.37
2018-02-20T10:10:11.358Z,19.03
2018-02-20T10:12:39.876Z,18.47
2018-02-20T10:15:08.362Z,16.33
2018-02-20T10:17:36.898Z,17.83
2018-02-20T10:20:05.366Z,18.93
2018-02-20T10:22:33.856Z,17.87
2018-02-20T10:25:02.386Z,17.87
2018-02-20T10:27:30.914Z,16.67
2018-02-20T10:29:59.378Z,16.90
2018-02-20T10:32:27.878Z,16.33
2018-02-20T10:34:56.448Z,17.50
2018-02-20T10:37:24.972Z,17.90
2018-02-20T10:39:53.461Z,16.80
2018-02-20T10:42:21.966Z,15.53
2018-02-20T10:44:50.609Z,15.20
2018-02-20T10:47:19.098Z,15.70
2018-02-20T10:49:47.626Z,14.27
2018-02-20T10:52:16.118Z,14.60
2018-02-20T10:54:44.575Z,14.27
2018-02-20T10:57:13.070Z,14.70
2018-02-20T10:59:41.577Z,13.83
2018-02-20T11:02:10.074Z,12.17
2018-02-20T11:04:38.578Z,13.33
2018-02-20T11:07:07.046Z,13.70
2018-02-20T11:09:35.566Z,13.93
2018-02-20T11:12:04.026Z,16.63
2018-02-20T11:14:32.467Z,15.27
2018-02-20T11:17:00.953Z,16.47
2018-02-20T11:19:29.445Z,13.60
2018-02-20T11:21:57.954Z,13.87
2018-02-20T11:24:26.414Z,14.97
2018-02-20T11:26:54.873Z,15.93
2018-02-20T11:29:23.366Z,13.77
2018-02-20T11:31:51.883Z,13.80
2018-02-20T11:34:20.352Z,14.03
2018-02-20T11:36:48.901Z,13.70
2018-02-20T11:39:17.386Z,14.07
2018-02-20T11:41:45.894Z,12.70
2018-02-20T11:44:14.354Z,13.00
2018-02-20T11:46:42.814Z,12.80
2018-02-20T11:49:11.318Z,12.67
2018-02-20T11:51:39.787Z,15.10
2018-02-20T11:54:08.302Z,14.87
2018-02-20T11:56:36.806Z,13.23
2018-02-20T11:59:05.274Z,11.10
2018-02-20T12:01:33.762Z,13.83
2018-02-20T12:04:02.313Z,12.80
2018-02-20T12:06:30.793Z,16.90
2018-02-20T12:08:59.258Z,15.67
2018-02-20T12:11:27.757Z,16.93
2018-02-20T12:13:56.264Z,13.07
2018-02-20T12:16:24.753Z,14.73
2018-02-20T12:18:53.227Z,21.73
2018-02-20T12:21:21.722Z,15.33
2018-02-20T12:23:50.226Z,14.23
2018-02-20T12:26:18.722Z,14.20
2018-02-20T12:28:47.193Z,15.27
2018-02-20T12:31:15.693Z,12.87
2018-02-20T12:33:44.178Z,11.47
2018-02-20T12:36:12.630Z,10.93
2018-02-20T12:38:41.151Z,12.33
2018-02-20T12:41:09.626Z,12.23
2018-02-20T12:43:38.107Z,11.30
2018-02-20T12:46:06.602Z,12.80
2018-02-20T12:48:35.091Z,11.33
2018-02-20T12:51:03.563Z,12.00
2018-02-20T12:53:32.069Z,11.00
2018-02-20T12:56:00.599Z,11.60
2018-02-20T12:58:29.158Z,10.87
2018-02-20T13:00:57.629Z,10.97
2018-02-20T13:03:26.092Z,11.50
2018-02-20T13:05:54.579Z,11.33
2018-02-20T13:08:23.083Z,11.63
2018-02-20T13:10:51.586Z,11.00
2018-02-20T13:13:20.092Z,11.30
2018-02-20T13:15:48.599Z,11.80
2018-02-20T13:18:17.110Z,11.57
2018-02-20T13:20:45.605Z,13.20
2018-02-20T13:23:14.084Z,11.87
2018-02-20T13:25:42.602Z,12.33
2018-02-20T13:28:11.059Z,12.57
2018-02-20T13:30:39.566Z,14.10
2018-02-20T13:33:08.058Z,16.77
2018-02-20T13:35:36.521Z,14.87
2018-02-20T13:38:05.010Z,14.83
2018-02-20T13:40:33.509Z,17.60
2018-02-20T13:43:01.980Z,16.90
2018-02-20T13:45:30.485Z,16.23
2018-02-20T13:47:59.750Z,16.50
2018-02-20T13:50:28.195Z,17.33
2018-02-20T13:52:56.722Z,19.50
2018-02-20T13:55:25.229Z,19.93
2018-02-20T13:57:53.682Z,19.47
2018-02-20T14:00:22.137Z,19.10
2018-02-20T14:02:50.637Z,18.60
2018-02-20T14:05:19.118Z,19.37
2018-02-20T14:07:47.637Z,20.00
2018-02-20T14:10:16.090Z,20.40
2018-02-20T14:12:44.607Z,24.53
2018-02-20T14:15:13.084Z,21.87
2018-02-20T14:17:41.578Z,22.13
2018-02-20T14:20:10.078Z,22.90
2018-02-20T14:22:38.543Z,25.23
2018-02-20T14:25:07.028Z,22.37
2018-02-20T14:27:35.498Z,22.93
2018-02-20T14:30:04.059Z,23.80
2018-02-20T14:32:32.526Z,21.80
2018-02-20T14:35:00.982Z,20.27
2018-02-20T14:37:29.478Z,22.07
2018-02-20T14:39:57.977Z,23.20
2018-02-20T14:42:26.470Z,21.83
2018-02-20T14:44:54.990Z,22.80
2018-02-20T14:47:23.518Z,20.53
2018-02-20T14:49:52.036Z,19.00
2018-02-20T14:52:20.559Z,20.17
2018-02-20T14:54:49.019Z,19.97
2018-02-20T14:57:17.547Z,20.07
2018-02-20T14:59:46.050Z,21.63
2018-02-20T15:02:14.550Z,24.13
2018-02-20T15:04:43.069Z,24.27
2018-02-20T15:07:11.542Z,24.63
2018-02-20T15:09:40.106Z,24.70
2018-02-20T15:12:08.613Z,21.13
2018-02-20T15:14:37.153Z,22.67
2018-02-20T15:17:05.606Z,20.70
2018-02-20T15:19:34.071Z,19.67
2018-02-20T15:22:02.589Z,22.23
2018-02-20T15:24:31.060Z,21.00
2018-02-20T15:26:59.576Z,21.30
2018-02-20T15:29:28.061Z,25.00
2018-02-20T15:31:56.522Z,24.00
2018-02-20T15:34:25.003Z,21.67
2018-02-20T15:36:53.466Z,28.57
2018-02-20T15:39:21.984Z,29.47
2018-02-20T15:41:50.442Z,22.57
2018-02-20T15:44:18.943Z,19.03
2018-02-20T15:46:47.443Z,22.57
2018-02-20T15:49:15.952Z,21.40
2018-02-20T15:51:44.417Z,21.33
2018-02-20T15:54:12.922Z,21.03
2018-02-20T15:56:41.454Z,26.43
2018-02-20T15:59:09.902Z,23.33
2018-02-20T16:01:38.399Z,22.43
2018-02-20T16:04:06.894Z,26.00
2018-02-20T16:06:35.394Z,23.60
2018-02-20T16:09:03.936Z,21.70
2018-02-20T16:11:32.418Z,23.47
2018-02-20T16:14:06.483Z,21.57
2018-02-20T16:16:35.023Z,22.27
2018-02-20T16:19:03.501Z,22.03
2018-02-20T16:21:31.958Z,21.70
2018-02-20T16:24:00.458Z,21.97
2018-02-20T16:26:29.002Z,21.03
2018-02-20T16:28:57.466Z,20.97
2018-02-20T16:31:25.923Z,20.03
2018-02-20T16:33:54.417Z,20.67
2018-02-20T16:36:22.875Z,22.40
2018-02-20T16:38:51.373Z,24.43
2018-02-20T16:41:19.830Z,29.83
2018-02-20T16:43:48.322Z,25.70
2018-02-20T16:46:16.814Z,23.20
2018-02-20T16:48:45.274Z,24.67
2018-02-20T16:51:13.770Z,26.90
2018-02-20T16:53:42.208Z,34.50
2018-02-20T16:56:10.702Z,32.23
2018-02-20T16:58:39.162Z,33.10
2018-02-20T17:01:07.674Z,33.30
2018-02-20T17:03:36.138Z,29.90
2018-02-20T17:06:04.598Z,26.30
2018-02-20T17:08:33.102Z,26.07
2018-02-20T17:11:01.576Z,27.83
2018-02-20T17:13:30.114Z,28.67
2018-02-20T17:15:58.624Z,31.80
2018-02-20T17:18:27.142Z,27.97
2018-02-20T17:20:55.602Z,27.20
2018-02-20T17:23:24.062Z,29.57
2018-02-20T17:25:52.562Z,28.63
2018-02-20T17:28:21.022Z,27.67
2018-02-20T17:30:49.528Z,27.30
2018-02-20T17:33:17.986Z,40.77
2018-02-20T17:35:46.489Z,33.50
2018-02-20T17:38:14.950Z,33.00
2018-02-20T17:40:43.458Z,31.90
2018-02-20T17:43:11.976Z,29.40
2018-02-20T17:45:40.437Z,32.30
2018-02-20T17:48:08.989Z,26.57
2018-02-20T17:50:37.474Z,26.67
2018-02-20T17:53:05.931Z,26.57
2018-02-20T17:55:34.427Z,31.37
2018-02-20T17:58:02.887Z,31.03
2018-02-20T18:00:31.390Z,30.80
2018-02-20T18:02:59.847Z,31.43
2018-02-20T18:05:28.401Z,31.13
2018-02-20T18:07:56.858Z,30.07
2018-02-20T18:10:25.354Z,30.60
2018-02-20T18:12:53.858Z,30.40
2018-02-20T18:15:22.355Z,29.63
2018-02-20T18:17:50.814Z,29.17
2018-02-20T18:20:19.306Z,29.00
2018-02-20T18:22:47.805Z,29.77
2018-02-20T18:25:16.298Z,28.37
2018-02-20T18:27:44.794Z,32.53
2018-02-20T18:30:13.250Z,30.47
2018-02-20T18:32:41.742Z,28.23
2018-02-20T18:35:10.198Z,27.50
2018-02-20T18:37:38.692Z,24.80
2018-02-20T18:40:07.165Z,22.53
2018-02-20T18:42:35.666Z,23.07
2018-02-20T18:45:04.130Z,22.10
2018-02-20T18:47:32.635Z,21.43
2018-02-20T18:50:01.108Z,21.50
2018-02-20T18:52:29.606Z,21.03
2018-02-20T18:54:58.091Z,21.33
2018-02-20T18:57:26.578Z,22.13
2018-02-20T18:59:55.115Z,21.93
2018-02-20T19:02:23.573Z,21.80
2018-02-20T19:04:52.038Z,24.73
2018-02-20T19:07:20.543Z,27.40
2018-02-20T19:09:49.002Z,28.07
2018-02-20T19:12:17.490Z,27.30
2018-02-20T19:14:45.967Z,26.30
2018-02-20T19:17:14.470Z,19.57
2018-02-20T19:19:42.944Z,20.00
2018-02-20T19:22:11.407Z,16.53
2018-02-20T19:24:39.914Z,16.57
2018-02-20T19:27:08.384Z,16.53
2018-02-20T19:29:36.877Z,15.03
2018-02-20T19:32:05.377Z,15.63
2018-02-20T19:34:33.867Z,15.53
2018-02-20T19:37:02.364Z,14.73
2018-02-20T19:39:30.846Z,13.90
2018-02-20T19:41:59.352Z,14.37
2018-02-20T19:44:27.831Z,14.80
2018-02-20T19:46:56.346Z,14.63
2018-02-20T19:49:24.840Z,14.60
2018-02-20T19:51:53.298Z,14.37
2018-02-20T19:54:21.820Z,15.20
2018-02-20T19:56:50.319Z,14.90
2018-02-20T19:59:18.782Z,16.13
2018-02-20T20:01:47.278Z,15.43
2018-02-20T20:04:15.805Z,14.33
2018-02-20T20:06:44.278Z,14.37
2018-02-20T20:09:12.782Z,15.17
2018-02-20T20:11:41.283Z,15.10
2018-02-20T20:14:09.752Z,14.63
2018-02-20T20:16:38.273Z,15.03
2018-02-20T20:19:06.829Z,15.30
2018-02-20T20:21:35.328Z,14.97
2018-02-20T20:24:03.798Z,14.73
2018-02-20T20:26:32.266Z,15.17
2018-02-20T20:29:00.771Z,15.60
2018-02-20T20:31:29.266Z,15.67
2018-02-20T20:33:57.722Z,16.10
2018-02-20T20:36:26.220Z,16.33
2018-02-20T20:38:54.743Z,16.33
2018-02-20T20:41:23.201Z,15.23
2018-02-20T20:43:51.705Z,16.80
2018-02-20T20:46:20.191Z,15.47
2018-02-20T20:48:48.670Z,15.43
2018-02-20T20:51:17.166Z,15.70
2018-02-20T20:53:45.628Z,15.63
2018-02-20T20:56:14.126Z,15.53
2018-02-20T20:58:42.595Z,15.37
2018-02-20T21:01:11.090Z,15.77
2018-02-20T21:03:39.596Z,16.53
2018-02-20T21:06:08.065Z,19.70
2018-02-20T21:08:36.557Z,22.63
2018-02-20T21:11:05.058Z,22.20
2018-02-20T21:13:33.522Z,19.67
2018-02-20T21:16:01.978Z,16.80
2018-02-20T21:18:30.485Z,17.07
2018-02-20T21:20:58.942Z,15.80
2018-02-20T21:23:27.442Z,15.30
2018-02-20T21:25:55.934Z,16.57
2018-02-20T21:28:24.400Z,17.20
2018-02-20T21:30:52.898Z,17.73
2018-02-20T21:33:21.354Z,18.40
2018-02-20T21:35:49.842Z,19.10
2018-02-20T21:38:18.337Z,15.77
2018-02-20T21:40:46.838Z,17.53
2018-02-20T21:43:15.333Z,15.53
2018-02-20T21:45:43.821Z,17.23
2018-02-20T21:48:12.281Z,15.83
2018-02-20T21:50:40.780Z,18.03
2018-02-20T21:53:09.263Z,16.50
2018-02-20T21:55:37.719Z,16.23
2018-02-20T21:58:06.274Z,15.50
2018-02-20T22:00:34.742Z,15.27
2018-02-20T22:03:03.252Z,16.13
2018-02-20T22:05:32.331Z,15.53
2018-02-20T22:08:00.790Z,15.67
2018-02-20T22:10:29.282Z,15.53
2018-02-20T22:12:57.738Z,16.57
2018-02-20T22:15:26.233Z,15.90
2018-02-20T22:17:54.738Z,16.17
2018-02-20T22:20:23.193Z,16.63
2018-02-20T22:22:51.646Z,16.93
2018-02-20T22:25:20.152Z,17.37
2018-02-20T22:27:48.654Z,16.20
2018-02-20T22:30:17.106Z,17.33
2018-02-20T22:32:45.589Z,16.70
2018-02-20T22:35:14.099Z,17.43
2018-02-20T22:37:42.563Z,17.43
2018-02-20T22:40:11.065Z,15.67
2018-02-20T22:42:39.570Z,17.90
2018-02-20T22:45:08.026Z,17.23
2018-02-20T22:47:36.486Z,18.33
2018-02-20T22:50:05.012Z,18.03
2018-02-20T22:52:33.474Z,18.23
2018-02-20T22:55:01.978Z,17.70
2018-02-20T22:57:30.495Z,17.43
2018-02-20T22:59:58.998Z,18.17
2018-02-20T23:02:27.467Z,18.47
2018-02-20T23:04:55.932Z,19.20
2018-02-20T23:07:24.442Z,17.23
2018-02-20T23:09:52.901Z,18.60
2018-02-20T23:12:21.362Z,19.53
2018-02-20T23:14:49.863Z,18.23
2018-02-20T23:17:18.326Z,18.03
2018-02-20T23:19:46.798Z,18.10
2018-02-20T23:22:15.329Z,19.07
2018-02-20T23:24:44.730Z,19.80
2018-02-20T23:27:13.189Z,18.07
2018-02-20T23:29:41.688Z,18.13
2018-02-20T23:32:10.181Z,17.60
2018-02-20T23:34:38.717Z,17.77
2018-02-20T23:37:07.218Z,17.97
2018-02-20T23:39:35.722Z,17.57
2018-02-20T23:42:04.181Z,17.97
2018-02-20T23:44:32.679Z,17.20
2018-02-20T23:47:01.150Z,19.47
2018-02-20T23:49:29.664Z,18.00
2018-02-20T23:51:58.142Z,18.97
2018-02-20T23:54:26.620Z,17.93
2018-02-20T23:56:55.134Z,18.93
2018-02-20T23:59:23.631Z,18.17
